La Riviere, Canada
Current Conditions -  °F | °C
As of 3:15 AM on Monday 24 Nov 2014 (Local Time) from KD55 Reporting Station
Overcast Overcast  
Wind Chill: -18°   Ceiling: 1300
Heat Index:   Visibility: 10mi
Dew Point:   Wind: 21mph
Humidity: 85%   Direction: 340°NNW
Pressure: 29.65"   Gusts: 30mph
Location:  49.24°N, 98.68°W
Report Text: KD55 240915Z AUTO 34018G26KT 10SM SCT004 OVC013 M16/M18 A2965 RMK AO2
Loading
Personal Weather Stations






























Interactive Weather Map New forecast layout! Learn more

10-Day Weather Forecast

Advertisements
Track Severe Weather on mobile